sensor_id;sensor_type;location;lat;lon;timestamp;pressure;altitude;pressure_sealevel;temperature;humidity
75536;BME280;64119;52.070;20.804;2024-01-11T00:00:56;101350.73;;;-5.37;72.44
75536;BME280;64119;52.070;20.804;2024-01-11T00:03:38;101345.68;;;-5.37;72.40
75536;BME280;64119;52.070;20.804;2024-01-11T00:06:05;101340.13;;;-5.35;72.51
75536;BME280;64119;52.070;20.804;2024-01-11T00:08:33;101332.22;;;-5.36;72.63
75536;BME280;64119;52.070;20.804;2024-01-11T00:11:01;101327.54;;;-5.35;72.79
75536;BME280;64119;52.070;20.804;2024-01-11T00:13:29;101315.81;;;-5.35;72.74
75536;BME280;64119;52.070;20.804;2024-01-11T00:15:57;101306.80;;;-5.34;72.83
75536;BME280;64119;52.070;20.804;2024-01-11T00:18:25;101308.65;;;-5.33;72.78
75536;BME280;64119;52.070;20.804;2024-01-11T00:20:53;101305.94;;;-5.30;73.16
75536;BME280;64119;52.070;20.804;2024-01-11T00:23:21;101295.13;;;-5.27;73.44
75536;BME280;64119;52.070;20.804;2024-01-11T00:25:48;101287.70;;;-5.23;73.51
75536;BME280;64119;52.070;20.804;2024-01-11T00:28:16;101279.83;;;-5.20;73.47
75536;BME280;64119;52.070;20.804;2024-01-11T00:30:44;101276.90;;;-5.17;73.21
75536;BME280;64119;52.070;20.804;2024-01-11T00:33:12;101278.83;;;-5.13;73.77
75536;BME280;64119;52.070;20.804;2024-01-11T00:35:40;101287.77;;;-5.13;73.66
75536;BME280;64119;52.070;20.804;2024-01-11T00:38:08;101290.01;;;-5.09;73.90
75536;BME280;64119;52.070;20.804;2024-01-11T00:40:36;101288.14;;;-5.05;74.08
75536;BME280;64119;52.070;20.804;2024-01-11T00:43:04;101284.56;;;-5.03;73.86
75536;BME280;64119;52.070;20.804;2024-01-11T00:45:32;101287.55;;;-5.00;74.15
75536;BME280;64119;52.070;20.804;2024-01-11T00:47:59;101282.41;;;-4.97;74.05
75536;BME280;64119;52.070;20.804;2024-01-11T00:50:27;101285.58;;;-4.94;74.07
75536;BME280;64119;52.070;20.804;2024-01-11T00:52:55;101290.73;;;-4.94;74.52
75536;BME280;64119;52.070;20.804;2024-01-11T00:55:23;101295.83;;;-4.92;73.98
75536;BME280;64119;52.070;20.804;2024-01-11T00:57:52;101299.05;;;-4.91;74.46
75536;BME280;64119;52.070;20.804;2024-01-11T01:00:20;101295.37;;;-4.93;74.57
75536;BME280;64119;52.070;20.804;2024-01-11T01:02:48;101290.23;;;-4.94;74.67
75536;BME280;64119;52.070;20.804;2024-01-11T01:05:15;101291.27;;;-4.94;75.11
75536;BME280;64119;52.070;20.804;2024-01-11T01:07:44;101303.86;;;-4.94;74.94
75536;BME280;64119;52.070;20.804;2024-01-11T01:10:13;101326.06;;;-4.97;75.79
75536;BME280;64119;52.070;20.804;2024-01-11T01:12:41;101325.55;;;-4.98;75.79
75536;BME280;64119;52.070;20.804;2024-01-11T01:15:09;101318.48;;;-4.97;74.90
75536;BME280;64119;52.070;20.804;2024-01-11T01:17:37;101312.23;;;-4.96;75.42
75536;BME280;64119;52.070;20.804;2024-01-11T01:20:05;101305.16;;;-4.96;75.17
75536;BME280;64119;52.070;20.804;2024-01-11T01:22:33;101294.26;;;-4.95;75.61
75536;BME280;64119;52.070;20.804;2024-01-11T01:25:02;101278.88;;;-4.91;75.28
75536;BME280;64119;52.070;20.804;2024-01-11T01:27:30;101270.04;;;-4.91;75.18
75536;BME280;64119;52.070;20.804;2024-01-11T01:29:58;101275.16;;;-4.89;76.38
75536;BME280;64119;52.070;20.804;2024-01-11T01:32:26;101282.50;;;-4.87;76.30
75536;BME280;64119;52.070;20.804;2024-01-11T01:34:54;101279.30;;;-4.85;76.97
75536;BME280;64119;52.070;20.804;2024-01-11T01:37:21;101282.02;;;-4.81;77.14
75536;BME280;64119;52.070;20.804;2024-01-11T01:39:49;101289.35;;;-4.79;77.60
75536;BME280;64119;52.070;20.804;2024-01-11T01:42:17;101306.73;;;-4.78;77.84
75536;BME280;64119;52.070;20.804;2024-01-11T01:44:45;101308.54;;;-4.80;78.28
75536;BME280;64119;52.070;20.804;2024-01-11T01:47:13;101305.98;;;-4.80;78.59
75536;BME280;64119;52.070;20.804;2024-01-11T01:49:42;101301.45;;;-4.79;77.71
75536;BME280;64119;52.070;20.804;2024-01-11T01:52:10;101297.67;;;-4.83;78.23
75536;BME280;64119;52.070;20.804;2024-01-11T01:54:41;101293.38;;;-4.88;78.09
75536;BME280;64119;52.070;20.804;2024-01-11T01:57:10;101278.13;;;-4.90;77.48
75536;BME280;64119;52.070;20.804;2024-01-11T01:59:39;101271.85;;;-4.89;77.30
75536;BME280;64119;52.070;20.804;2024-01-11T02:02:07;101260.58;;;-4.91;77.20
75536;BME280;64119;52.070;20.804;2024-01-11T02:04:35;101253.12;;;-4.94;76.77
75536;BME280;64119;52.070;20.804;2024-01-11T02:07:04;101269.73;;;-4.99;77.92
75536;BME280;64119;52.070;20.804;2024-01-11T02:09:33;101257.64;;;-5.02;78.25
75536;BME280;64119;52.070;20.804;2024-01-11T02:12:00;101249.25;;;-5.03;78.25
75536;BME280;64119;52.070;20.804;2024-01-11T02:14:29;101254.83;;;-5.05;78.56
75536;BME280;64119;52.070;20.804;2024-01-11T02:16:58;101254.78;;;-5.07;78.46
75536;BME280;64119;52.070;20.804;2024-01-11T02:19:26;101263.27;;;-5.08;78.37
75536;BME280;64119;52.070;20.804;2024-01-11T02:21:54;101272.39;;;-5.08;79.11
75536;BME280;64119;52.070;20.804;2024-01-11T02:24:23;101276.27;;;-5.06;79.00
75536;BME280;64119;52.070;20.804;2024-01-11T02:27:01;101278.38;;;-5.03;78.25
75536;BME280;64119;52.070;20.804;2024-01-11T02:29:30;101271.69;;;-5.04;78.13
75536;BME280;64119;52.070;20.804;2024-01-11T02:32:01;101254.48;;;-5.05;77.59
75536;BME280;64119;52.070;20.804;2024-01-11T02:34:30;101240.63;;;-5.08;77.45
75536;BME280;64119;52.070;20.804;2024-01-11T02:36:59;101249.45;;;-5.12;78.07
75536;BME280;64119;52.070;20.804;2024-01-11T02:39:27;101259.61;;;-5.19;77.69
75536;BME280;64119;52.070;20.804;2024-01-11T02:41:56;101259.73;;;-5.22;77.92
75536;BME280;64119;52.070;20.804;2024-01-11T02:44:25;101252.73;;;-5.23;77.77
75536;BME280;64119;52.070;20.804;2024-01-11T02:46:54;101250.20;;;-5.25;77.85
75536;BME280;64119;52.070;20.804;2024-01-11T02:49:22;101253.51;;;-5.21;77.74
75536;BME280;64119;52.070;20.804;2024-01-11T02:51:49;101253.10;;;-5.24;77.48
75536;BME280;64119;52.070;20.804;2024-01-11T02:54:17;101260.60;;;-5.26;77.38
75536;BME280;64119;52.070;20.804;2024-01-11T02:56:45;101261.77;;;-5.29;77.25
75536;BME280;64119;52.070;20.804;2024-01-11T02:59:13;101248.66;;;-5.33;77.21
75536;BME280;64119;52.070;20.804;2024-01-11T03:01:41;101242.67;;;-5.38;77.09
75536;BME280;64119;52.070;20.804;2024-01-11T03:04:09;101222.81;;;-5.41;77.05
75536;BME280;64119;52.070;20.804;2024-01-11T03:06:37;101221.36;;;-5.44;77.37
75536;BME280;64119;52.070;20.804;2024-01-11T03:09:05;101219.04;;;-5.46;77.68
75536;BME280;64119;52.070;20.804;2024-01-11T03:11:32;101221.64;;;-5.46;77.35
75536;BME280;64119;52.070;20.804;2024-01-11T03:14:00;101251.71;;;-5.44;77.78
75536;BME280;64119;52.070;20.804;2024-01-11T03:16:30;101267.93;;;-5.40;77.90
75536;BME280;64119;52.070;20.804;2024-01-11T03:18:58;101262.70;;;-5.34;78.08
75536;BME280;64119;52.070;20.804;2024-01-11T03:21:26;101246.61;;;-5.33;77.69
75536;BME280;64119;52.070;20.804;2024-01-11T03:23:54;101238.02;;;-5.30;77.58
75536;BME280;64119;52.070;20.804;2024-01-11T03:26:22;101234.84;;;-5.24;77.31
75536;BME280;64119;52.070;20.804;2024-01-11T03:28:50;101234.55;;;-5.25;77.08
75536;BME280;64119;52.070;20.804;2024-01-11T03:31:18;101243.23;;;-5.27;77.30
75536;BME280;64119;52.070;20.804;2024-01-11T03:33:46;101237.09;;;-5.28;77.46
75536;BME280;64119;52.070;20.804;2024-01-11T03:36:14;101222.71;;;-5.27;77.11
75536;BME280;64119;52.070;20.804;2024-01-11T03:38:41;101237.31;;;-5.29;77.67
75536;BME280;64119;52.070;20.804;2024-01-11T03:41:10;101248.41;;;-5.31;77.85
75536;BME280;64119;52.070;20.804;2024-01-11T03:43:38;101233.73;;;-5.30;77.91
75536;BME280;64119;52.070;20.804;2024-01-11T03:46:06;101222.01;;;-5.30;77.30
75536;BME280;64119;52.070;20.804;2024-01-11T03:48:34;101229.25;;;-5.35;77.38
75536;BME280;64119;52.070;20.804;2024-01-11T03:51:03;101207.35;;;-5.42;77.59
75536;BME280;64119;52.070;20.804;2024-01-11T03:53:34;101195.02;;;-5.44;77.28
75536;BME280;64119;52.070;20.804;2024-01-11T03:56:04;101191.51;;;-5.46;77.49
75536;BME280;64119;52.070;20.804;2024-01-11T03:58:32;101187.10;;;-5.52;77.92
75536;BME280;64119;52.070;20.804;2024-01-11T04:01:00;101184.16;;;-5.56;78.76
75536;BME280;64119;52.070;20.804;2024-01-11T04:03:28;101180.40;;;-5.57;78.18
75536;BME280;64119;52.070;20.804;2024-01-11T04:05:56;101169.31;;;-5.59;78.44
75536;BME280;64119;52.070;20.804;2024-01-11T04:08:24;101164.12;;;-5.62;77.96
75536;BME280;64119;52.070;20.804;2024-01-11T04:10:52;101157.72;;;-5.62;78.73
75536;BME280;64119;52.070;20.804;2024-01-11T04:13:20;101157.09;;;-5.59;78.90
75536;BME280;64119;52.070;20.804;2024-01-11T04:15:51;101140.90;;;-5.55;79.11
75536;BME280;64119;52.070;20.804;2024-01-11T04:18:19;101126.98;;;-5.52;79.17
75536;BME280;64119;52.070;20.804;2024-01-11T04:20:47;101140.64;;;-5.49;79.55
75536;BME280;64119;52.070;20.804;2024-01-11T04:23:15;101171.40;;;-5.51;82.75
75536;BME280;64119;52.070;20.804;2024-01-11T04:25:43;101173.54;;;-5.53;83.27
75536;BME280;64119;52.070;20.804;2024-01-11T04:28:11;101167.59;;;-5.51;82.06
75536;BME280;64119;52.070;20.804;2024-01-11T04:30:38;101166.46;;;-5.45;80.95
75536;BME280;64119;52.070;20.804;2024-01-11T04:33:06;101169.70;;;-5.37;81.09
75536;BME280;64119;52.070;20.804;2024-01-11T04:35:34;101165.75;;;-5.33;82.09
75536;BME280;64119;52.070;20.804;2024-01-11T04:38:02;101170.60;;;-5.33;82.02
75536;BME280;64119;52.070;20.804;2024-01-11T04:40:30;101165.52;;;-5.31;81.02
75536;BME280;64119;52.070;20.804;2024-01-11T04:42:58;101169.91;;;-5.33;82.50
75536;BME280;64119;52.070;20.804;2024-01-11T04:45:26;101159.58;;;-5.37;81.87
75536;BME280;64119;52.070;20.804;2024-01-11T04:47:53;101153.67;;;-5.40;83.10
75536;BME280;64119;52.070;20.804;2024-01-11T04:50:22;101153.71;;;-5.45;84.07
75536;BME280;64119;52.070;20.804;2024-01-11T04:52:50;101154.23;;;-5.45;82.05
75536;BME280;64119;52.070;20.804;2024-01-11T04:55:17;101160.33;;;-5.47;83.85
75536;BME280;64119;52.070;20.804;2024-01-11T04:57:46;101162.38;;;-5.50;85.08
75536;BME280;64119;52.070;20.804;2024-01-11T05:00:14;101152.59;;;-5.55;86.40
75536;BME280;64119;52.070;20.804;2024-01-11T05:02:42;101157.58;;;-5.55;84.93
75536;BME280;64119;52.070;20.804;2024-01-11T05:05:10;101156.47;;;-5.53;84.20
75536;BME280;64119;52.070;20.804;2024-01-11T05:07:38;101160.61;;;-5.49;83.63
75536;BME280;64119;52.070;20.804;2024-01-11T05:10:06;101161.75;;;-5.44;84.46
75536;BME280;64119;52.070;20.804;2024-01-11T05:12:35;101163.54;;;-5.38;84.88
75536;BME280;64119;52.070;20.804;2024-01-11T05:15:05;101154.48;;;-5.31;84.88
75536;BME280;64119;52.070;20.804;2024-01-11T05:17:35;101157.95;;;-5.31;87.57
75536;BME280;64119;52.070;20.804;2024-01-11T05:20:03;101157.34;;;-5.30;86.42
75536;BME280;64119;52.070;20.804;2024-01-11T05:22:31;101151.42;;;-5.25;85.72
75536;BME280;64119;52.070;20.804;2024-01-11T05:24:59;101142.68;;;-5.18;85.43
75536;BME280;64119;52.070;20.804;2024-01-11T05:27:27;101140.20;;;-5.13;85.65
75536;BME280;64119;52.070;20.804;2024-01-11T05:29:55;101138.95;;;-5.09;85.64
75536;BME280;64119;52.070;20.804;2024-01-11T05:32:23;101133.80;;;-5.05;85.20
75536;BME280;64119;52.070;20.804;2024-01-11T05:34:51;101131.31;;;-5.07;86.15
75536;BME280;64119;52.070;20.804;2024-01-11T05:37:19;101126.45;;;-5.11;85.54
75536;BME280;64119;52.070;20.804;2024-01-11T05:39:48;101116.89;;;-5.09;84.25
75536;BME280;64119;52.070;20.804;2024-01-11T05:42:16;101114.00;;;-5.10;84.35
75536;BME280;64119;52.070;20.804;2024-01-11T05:44:43;101111.98;;;-5.15;85.31
75536;BME280;64119;52.070;20.804;2024-01-11T05:47:11;101109.36;;;-5.17;84.70
75536;BME280;64119;52.070;20.804;2024-01-11T05:49:40;101101.20;;;-5.20;84.70
75536;BME280;64119;52.070;20.804;2024-01-11T05:52:08;101100.45;;;-5.22;84.36
75536;BME280;64119;52.070;20.804;2024-01-11T05:54:35;101095.79;;;-5.26;85.46
75536;BME280;64119;52.070;20.804;2024-01-11T05:57:04;101094.02;;;-5.28;86.31
75536;BME280;64119;52.070;20.804;2024-01-11T05:59:31;101083.31;;;-5.32;85.37
75536;BME280;64119;52.070;20.804;2024-01-11T06:02:00;101084.55;;;-5.32;85.28
75536;BME280;64119;52.070;20.804;2024-01-11T06:04:31;101082.33;;;-5.29;85.45
75536;BME280;64119;52.070;20.804;2024-01-11T06:07:00;101078.99;;;-5.24;85.66
75536;BME280;64119;52.070;20.804;2024-01-11T06:09:28;101075.25;;;-5.17;86.23
75536;BME280;64119;52.070;20.804;2024-01-11T06:11:55;101067.05;;;-5.16;86.49
75536;BME280;64119;52.070;20.804;2024-01-11T06:14:23;101062.16;;;-5.07;86.09
75536;BME280;64119;52.070;20.804;2024-01-11T06:16:51;101059.83;;;-5.02;86.62
75536;BME280;64119;52.070;20.804;2024-01-11T06:19:19;101063.14;;;-4.96;87.06
75536;BME280;64119;52.070;20.804;2024-01-11T06:21:47;101061.25;;;-4.89;86.84
75536;BME280;64119;52.070;20.804;2024-01-11T06:24:15;101056.73;;;-4.81;87.05
75536;BME280;64119;52.070;20.804;2024-01-11T06:26:43;101051.85;;;-4.77;86.64
75536;BME280;64119;52.070;20.804;2024-01-11T06:29:11;101053.83;;;-4.71;86.44
75536;BME280;64119;52.070;20.804;2024-01-11T06:31:38;101051.23;;;-4.67;86.60
75536;BME280;64119;52.070;20.804;2024-01-11T06:34:06;101053.88;;;-4.65;86.51
75536;BME280;64119;52.070;20.804;2024-01-11T06:36:34;101049.50;;;-4.67;86.77
75536;BME280;64119;52.070;20.804;2024-01-11T06:39:02;101047.52;;;-4.69;86.51
75536;BME280;64119;52.070;20.804;2024-01-11T06:41:31;101048.11;;;-4.70;86.57
75536;BME280;64119;52.070;20.804;2024-01-11T06:43:59;101048.29;;;-4.71;86.33
75536;BME280;64119;52.070;20.804;2024-01-11T06:46:29;101043.13;;;-4.71;86.14
75536;BME280;64119;52.070;20.804;2024-01-11T06:48:57;101043.02;;;-4.72;87.57
75536;BME280;64119;52.070;20.804;2024-01-11T06:51:25;101039.29;;;-4.74;87.76
75536;BME280;64119;52.070;20.804;2024-01-11T06:53:53;101031.75;;;-4.75;87.88
75536;BME280;64119;52.070;20.804;2024-01-11T06:56:21;101033.41;;;-4.73;87.08
75536;BME280;64119;52.070;20.804;2024-01-11T06:58:48;101027.13;;;-4.72;87.23
75536;BME280;64119;52.070;20.804;2024-01-11T07:01:17;101018.06;;;-4.74;87.80
75536;BME280;64119;52.070;20.804;2024-01-11T07:03:45;101030.14;;;-4.70;87.44
75536;BME280;64119;52.070;20.804;2024-01-11T07:06:13;101026.48;;;-4.69;90.47
75536;BME280;64119;52.070;20.804;2024-01-11T07:08:41;101019.95;;;-4.66;89.55
75536;BME280;64119;52.070;20.804;2024-01-11T07:11:09;101021.45;;;-4.58;89.14
75536;BME280;64119;52.070;20.804;2024-01-11T07:13:37;101020.88;;;-4.50;88.49
75536;BME280;64119;52.070;20.804;2024-01-11T07:16:06;101013.84;;;-4.41;88.39
75536;BME280;64119;52.070;20.804;2024-01-11T07:18:33;101006.45;;;-4.32;89.46
75536;BME280;64119;52.070;20.804;2024-01-11T07:21:01;101003.45;;;-4.24;89.32
75536;BME280;64119;52.070;20.804;2024-01-11T07:23:30;101012.49;;;-4.16;91.03
75536;BME280;64119;52.070;20.804;2024-01-11T07:25:58;101016.66;;;-4.13;93.62
75536;BME280;64119;52.070;20.804;2024-01-11T07:28:26;101009.11;;;-4.10;91.73
75536;BME280;64119;52.070;20.804;2024-01-11T07:30:54;100992.55;;;-4.07;91.44
75536;BME280;64119;52.070;20.804;2024-01-11T07:33:22;101002.87;;;-4.07;91.88
75536;BME280;64119;52.070;20.804;2024-01-11T07:35:50;101002.82;;;-4.09;92.51
75536;BME280;64119;52.070;20.804;2024-01-11T07:38:18;101010.71;;;-4.08;92.28
75536;BME280;64119;52.070;20.804;2024-01-11T07:40:46;101005.95;;;-4.06;91.57
75536;BME280;64119;52.070;20.804;2024-01-11T07:43:14;101010.61;;;-4.06;93.22
75536;BME280;64119;52.070;20.804;2024-01-11T07:45:42;101005.24;;;-4.02;91.86
75536;BME280;64119;52.070;20.804;2024-01-11T07:48:10;101009.23;;;-3.99;92.82
75536;BME280;64119;52.070;20.804;2024-01-11T07:50:38;101001.98;;;-3.93;91.63
75536;BME280;64119;52.070;20.804;2024-01-11T07:53:06;101000.52;;;-3.91;93.60
75536;BME280;64119;52.070;20.804;2024-01-11T07:55:33;100996.40;;;-3.92;94.44
75536;BME280;64119;52.070;20.804;2024-01-11T07:58:02;100996.98;;;-3.87;92.48
75536;BME280;64119;52.070;20.804;2024-01-11T08:00:30;101006.05;;;-3.85;92.00
75536;BME280;64119;52.070;20.804;2024-01-11T08:02:57;101008.97;;;-3.85;92.49
75536;BME280;64119;52.070;20.804;2024-01-11T08:05:25;101012.53;;;-3.84;92.06
75536;BME280;64119;52.070;20.804;2024-01-11T08:07:53;101024.62;;;-3.86;94.61
75536;BME280;64119;52.070;20.804;2024-01-11T08:10:21;101022.79;;;-3.91;94.54
75536;BME280;64119;52.070;20.804;2024-01-11T08:12:49;101021.67;;;-3.89;94.29
75536;BME280;64119;52.070;20.804;2024-01-11T08:15:16;101023.63;;;-3.90;94.98
75536;BME280;64119;52.070;20.804;2024-01-11T08:17:45;101027.09;;;-3.87;92.70
75536;BME280;64119;52.070;20.804;2024-01-11T08:20:16;101030.71;;;-3.84;93.76
75536;BME280;64119;52.070;20.804;2024-01-11T08:22:44;101027.67;;;-3.82;93.30
75536;BME280;64119;52.070;20.804;2024-01-11T08:25:13;101029.50;;;-3.84;94.03
75536;BME280;64119;52.070;20.804;2024-01-11T08:27:42;101029.44;;;-3.79;94.31
75536;BME280;64119;52.070;20.804;2024-01-11T08:30:10;101029.20;;;-3.78;95.63
75536;BME280;64119;52.070;20.804;2024-01-11T08:32:40;101026.38;;;-3.71;94.65
75536;BME280;64119;52.070;20.804;2024-01-11T08:35:10;101027.13;;;-3.69;94.64
75536;BME280;64119;52.070;20.804;2024-01-11T08:37:38;101032.20;;;-3.67;94.75
75536;BME280;64119;52.070;20.804;2024-01-11T08:40:07;101025.52;;;-3.68;95.02
75536;BME280;64119;52.070;20.804;2024-01-11T08:42:37;101026.61;;;-3.69;95.51
75536;BME280;64119;52.070;20.804;2024-01-11T08:45:06;101034.23;;;-3.69;95.61
75536;BME280;64119;52.070;20.804;2024-01-11T08:47:35;101041.56;;;-3.71;94.86
75536;BME280;64119;52.070;20.804;2024-01-11T08:50:04;101041.16;;;-3.73;95.59
75536;BME280;64119;52.070;20.804;2024-01-11T08:52:34;101043.12;;;-3.74;95.68
75536;BME280;64119;52.070;20.804;2024-01-11T08:55:01;101041.14;;;-3.75;96.20
75536;BME280;64119;52.070;20.804;2024-01-11T08:57:29;101038.56;;;-3.69;96.22
75536;BME280;64119;52.070;20.804;2024-01-11T08:59:57;101035.54;;;-3.68;97.35
75536;BME280;64119;52.070;20.804;2024-01-11T09:02:25;101033.70;;;-3.63;95.89
75536;BME280;64119;52.070;20.804;2024-01-11T09:04:54;101033.73;;;-3.57;95.70
75536;BME280;64119;52.070;20.804;2024-01-11T09:07:22;101032.77;;;-3.49;95.10
75536;BME280;64119;52.070;20.804;2024-01-11T09:09:50;101037.09;;;-3.49;95.98
75536;BME280;64119;52.070;20.804;2024-01-11T09:12:24;101032.03;;;-3.51;95.59
75536;BME280;64119;52.070;20.804;2024-01-11T09:14:51;101034.17;;;-3.49;95.92
75536;BME280;64119;52.070;20.804;2024-01-11T09:17:19;101030.82;;;-3.48;95.15
75536;BME280;64119;52.070;20.804;2024-01-11T09:19:47;101027.48;;;-3.50;96.15
75536;BME280;64119;52.070;20.804;2024-01-11T09:22:15;101024.14;;;-3.49;95.71
75536;BME280;64119;52.070;20.804;2024-01-11T09:24:43;101019.52;;;-3.43;95.01
75536;BME280;64119;52.070;20.804;2024-01-11T09:27:11;101019.48;;;-3.40;94.51
75536;BME280;64119;52.070;20.804;2024-01-11T09:29:46;101010.25;;;-3.36;94.90
75536;BME280;64119;52.070;20.804;2024-01-11T09:32:14;101005.88;;;-3.31;94.69
75536;BME280;64119;52.070;20.804;2024-01-11T09:34:42;101003.04;;;-3.30;94.40
75536;BME280;64119;52.070;20.804;2024-01-11T09:37:13;100998.67;;;-3.29;94.51
75536;BME280;64119;52.070;20.804;2024-01-11T09:39:41;100995.93;;;-3.30;93.69
75536;BME280;64119;52.070;20.804;2024-01-11T09:42:10;100988.77;;;-3.29;93.76
75536;BME280;64119;52.070;20.804;2024-01-11T09:44:38;100986.28;;;-3.31;94.02
75536;BME280;64119;52.070;20.804;2024-01-11T09:47:15;100975.48;;;-3.29;93.39
75536;BME280;64119;52.070;20.804;2024-01-11T09:49:47;100974.84;;;-3.24;94.33
75536;BME280;64119;52.070;20.804;2024-01-11T09:52:20;100974.25;;;-3.17;93.87
75536;BME280;64119;52.070;20.804;2024-01-11T09:54:49;100973.42;;;-3.05;93.13
75536;BME280;64119;52.070;20.804;2024-01-11T09:57:28;100968.48;;;-2.95;92.80
75536;BME280;64119;52.070;20.804;2024-01-11T09:59:57;100962.29;;;-2.87;92.68
75536;BME280;64119;52.070;20.804;2024-01-11T10:02:26;100964.90;;;-2.78;92.37
75536;BME280;64119;52.070;20.804;2024-01-11T10:04:55;100958.32;;;-2.72;92.26
75536;BME280;64119;52.070;20.804;2024-01-11T10:07:24;100956.08;;;-2.72;91.98
75536;BME280;64119;52.070;20.804;2024-01-11T10:09:53;100952.52;;;-2.74;91.91
75536;BME280;64119;52.070;20.804;2024-01-11T10:12:21;100943.17;;;-2.74;91.86
75536;BME280;64119;52.070;20.804;2024-01-11T10:14:52;100939.55;;;-2.74;91.66
75536;BME280;64119;52.070;20.804;2024-01-11T10:17:21;100935.03;;;-2.79;91.62
75536;BME280;64119;52.070;20.804;2024-01-11T10:19:55;100933.11;;;-2.85;91.91
75536;BME280;64119;52.070;20.804;2024-01-11T10:22:23;100932.65;;;-2.89;91.99
75536;BME280;64119;52.070;20.804;2024-01-11T10:25:14;100928.28;;;-2.91;91.86
75536;BME280;64119;52.070;20.804;2024-01-11T10:27:45;100930.02;;;-2.94;92.30
75536;BME280;64119;52.070;20.804;2024-01-11T10:30:14;100927.80;;;-2.91;92.03
75536;BME280;64119;52.070;20.804;2024-01-11T10:32:48;100919.17;;;-2.86;92.55
75536;BME280;64119;52.070;20.804;2024-01-11T10:35:16;100921.84;;;-2.79;91.87
75536;BME280;64119;52.070;20.804;2024-01-11T10:37:49;100923.04;;;-2.69;91.55
75536;BME280;64119;52.070;20.804;2024-01-11T10:40:18;100929.34;;;-2.62;91.81
75536;BME280;64119;52.070;20.804;2024-01-11T10:42:52;100928.46;;;-2.50;91.81
75536;BME280;64119;52.070;20.804;2024-01-11T10:45:20;100926.52;;;-2.41;91.69
75536;BME280;64119;52.070;20.804;2024-01-11T10:48:00;100927.02;;;-2.41;92.02
75536;BME280;64119;52.070;20.804;2024-01-11T10:50:34;100923.46;;;-2.42;91.52
75536;BME280;64119;52.070;20.804;2024-01-11T10:55:34;100920.58;;;-2.54;92.01
75536;BME280;64119;52.070;20.804;2024-01-11T10:58:02;100925.92;;;-2.57;92.70
75536;BME280;64119;52.070;20.804;2024-01-11T11:00:31;100923.27;;;-2.65;93.58
75536;BME280;64119;52.070;20.804;2024-01-11T11:02:59;100920.93;;;-2.63;93.04
75536;BME280;64119;52.070;20.804;2024-01-11T11:05:29;100919.94;;;-2.61;93.70
75536;BME280;64119;52.070;20.804;2024-01-11T11:08:01;100915.39;;;-2.54;93.55
75536;BME280;64119;52.070;20.804;2024-01-11T11:10:31;100919.86;;;-2.45;94.03
75536;BME280;64119;52.070;20.804;2024-01-11T11:13:00;100913.17;;;-2.44;94.23
75536;BME280;64119;52.070;20.804;2024-01-11T11:15:28;100910.14;;;-2.42;93.75
75536;BME280;64119;52.070;20.804;2024-01-11T11:17:57;100909.84;;;-2.40;93.00
75536;BME280;64119;52.070;20.804;2024-01-11T11:20:26;100906.16;;;-2.39;93.11
75536;BME280;64119;52.070;20.804;2024-01-11T11:23:05;100897.51;;;-2.42;93.78
75536;BME280;64119;52.070;20.804;2024-01-11T11:25:34;100884.90;;;-2.46;93.05
75536;BME280;64119;52.070;20.804;2024-01-11T11:28:03;100880.52;;;-2.42;93.47
75536;BME280;64119;52.070;20.804;2024-01-11T11:30:40;100876.77;;;-2.43;92.86
75536;BME280;64119;52.070;20.804;2024-01-11T11:33:16;100882.40;;;-2.42;93.47
75536;BME280;64119;52.070;20.804;2024-01-11T11:35:48;100880.27;;;-2.38;93.49
75536;BME280;64119;52.070;20.804;2024-01-11T11:38:27;100882.41;;;-2.31;93.41
75536;BME280;64119;52.070;20.804;2024-01-11T11:40:59;100883.96;;;-2.28;93.70
75536;BME280;64119;52.070;20.804;2024-01-11T11:43:28;100881.95;;;-2.26;94.18
75536;BME280;64119;52.070;20.804;2024-01-11T11:45:57;100876.60;;;-2.24;93.59
75536;BME280;64119;52.070;20.804;2024-01-11T11:53:40;100870.00;;;-2.24;93.21
75536;BME280;64119;52.070;20.804;2024-01-11T11:56:09;100868.21;;;-2.31;94.47
75536;BME280;64119;52.070;20.804;2024-01-11T11:58:38;100860.49;;;-2.32;94.71
75536;BME280;64119;52.070;20.804;2024-01-11T12:01:07;100854.60;;;-2.26;94.17
75536;BME280;64119;52.070;20.804;2024-01-11T12:03:40;100854.45;;;-2.24;94.78
75536;BME280;64119;52.070;20.804;2024-01-11T12:06:11;100850.15;;;-2.22;95.25
75536;BME280;64119;52.070;20.804;2024-01-11T12:08:42;100850.98;;;-2.16;94.56
75536;BME280;64119;52.070;20.804;2024-01-11T12:11:14;100848.54;;;-2.16;95.08
75536;BME280;64119;52.070;20.804;2024-01-11T12:13:43;100853.03;;;-2.15;95.29
75536;BME280;64119;52.070;20.804;2024-01-11T12:16:12;100850.53;;;-2.17;95.36
75536;BME280;64119;52.070;20.804;2024-01-11T12:18:40;100846.87;;;-2.20;95.93
75536;BME280;64119;52.070;20.804;2024-01-11T12:21:09;100849.49;;;-2.20;96.34
75536;BME280;64119;52.070;20.804;2024-01-11T12:23:38;100842.66;;;-2.24;96.56
75536;BME280;64119;52.070;20.804;2024-01-11T12:26:07;100844.05;;;-2.21;96.67
75536;BME280;64119;52.070;20.804;2024-01-11T12:28:41;100841.39;;;-2.18;96.37
75536;BME280;64119;52.070;20.804;2024-01-11T12:31:11;100832.63;;;-2.11;96.32
75536;BME280;64119;52.070;20.804;2024-01-11T12:33:41;100829.19;;;-2.06;96.34
75536;BME280;64119;52.070;20.804;2024-01-11T12:36:11;100821.73;;;-2.00;96.10
75536;BME280;64119;52.070;20.804;2024-01-11T12:38:46;100827.32;;;-1.93;95.73
75536;BME280;64119;52.070;20.804;2024-01-11T12:41:21;100834.21;;;-1.89;95.58
75536;BME280;64119;52.070;20.804;2024-01-11T12:43:49;100830.83;;;-1.90;96.72
75536;BME280;64119;52.070;20.804;2024-01-11T12:46:18;100830.48;;;-1.93;96.84
75536;BME280;64119;52.070;20.804;2024-01-11T12:48:47;100835.27;;;-1.92;97.38
75536;BME280;64119;52.070;20.804;2024-01-11T12:51:17;100828.61;;;-1.83;96.54
75536;BME280;64119;52.070;20.804;2024-01-11T12:53:51;100832.25;;;-1.75;96.12
75536;BME280;64119;52.070;20.804;2024-01-11T12:56:20;100829.96;;;-1.72;96.99